sensor_id;sensor_type;location;lat;lon;timestamp;P1;durP1;ratioP1;P2;durP2;ratioP2
78648;SDS011;67962;47.310;9.642;2023-06-04T00:01:20;8.23;;;3.92;;
78648;SDS011;67962;47.310;9.642;2023-06-04T00:03:46;5.93;;;4.28;;
78648;SDS011;67962;47.310;9.642;2023-06-04T00:06:12;6.43;;;3.70;;
78648;SDS011;67962;47.310;9.642;2023-06-04T00:08:37;8.20;;;3.63;;
78648;SDS011;67962;47.310;9.642;2023-06-04T00:11:03;6.82;;;3.90;;
78648;SDS011;67962;47.310;9.642;2023-06-04T00:13:29;5.68;;;3.38;;
78648;SDS011;67962;47.310;9.642;2023-06-04T00:15:55;6.72;;;3.58;;
78648;SDS011;67962;47.310;9.642;2023-06-04T00:18:20;8.00;;;4.18;;
78648;SDS011;67962;47.310;9.642;2023-06-04T00:20:46;8.10;;;3.70;;
78648;SDS011;67962;47.310;9.642;2023-06-04T00:23:11;6.00;;;3.38;;
78648;SDS011;67962;47.310;9.642;2023-06-04T00:25:37;5.00;;;3.47;;
78648;SDS011;67962;47.310;9.642;2023-06-04T00:28:03;6.90;;;3.85;;
78648;SDS011;67962;47.310;9.642;2023-06-04T00:30:29;7.35;;;3.97;;
78648;SDS011;67962;47.310;9.642;2023-06-04T00:32:54;7.72;;;3.80;;
78648;SDS011;67962;47.310;9.642;2023-06-04T00:35:20;8.07;;;3.88;;
78648;SDS011;67962;47.310;9.642;2023-06-04T00:37:46;7.25;;;3.80;;
78648;SDS011;67962;47.310;9.642;2023-06-04T00:40:12;5.85;;;3.33;;
78648;SDS011;67962;47.310;9.642;2023-06-04T00:42:38;6.07;;;3.75;;
78648;SDS011;67962;47.310;9.642;2023-06-04T00:45:04;5.72;;;3.55;;
78648;SDS011;67962;47.310;9.642;2023-06-04T00:47:34;4.82;;;3.38;;
78648;SDS011;67962;47.310;9.642;2023-06-04T00:50:00;7.22;;;3.65;;
78648;SDS011;67962;47.310;9.642;2023-06-04T00:52:26;4.70;;;3.33;;
78648;SDS011;67962;47.310;9.642;2023-06-04T00:54:52;7.93;;;3.42;;
78648;SDS011;67962;47.310;9.642;2023-06-04T00:57:20;5.97;;;3.13;;
78648;SDS011;67962;47.310;9.642;2023-06-04T00:59:48;9.60;;;3.40;;
78648;SDS011;67962;47.310;9.642;2023-06-04T01:02:18;7.43;;;3.50;;
78648;SDS011;67962;47.310;9.642;2023-06-04T01:07:16;6.03;;;3.30;;
78648;SDS011;67962;47.310;9.642;2023-06-04T01:09:43;6.35;;;2.83;;
78648;SDS011;67962;47.310;9.642;2023-06-04T01:12:10;6.78;;;3.70;;
78648;SDS011;67962;47.310;9.642;2023-06-04T01:14:36;8.38;;;3.22;;
78648;SDS011;67962;47.310;9.642;2023-06-04T01:25:34;6.78;;;3.42;;
78648;SDS011;67962;47.310;9.642;2023-06-04T01:28:05;7.85;;;3.78;;
78648;SDS011;67962;47.310;9.642;2023-06-04T01:30:34;6.97;;;3.78;;
78648;SDS011;67962;47.310;9.642;2023-06-04T01:33:01;5.97;;;3.53;;
78648;SDS011;67962;47.310;9.642;2023-06-04T01:35:28;5.75;;;3.47;;
78648;SDS011;67962;47.310;9.642;2023-06-04T01:37:57;7.13;;;4.03;;
78648;SDS011;67962;47.310;9.642;2023-06-04T01:40:23;5.60;;;3.38;;
78648;SDS011;67962;47.310;9.642;2023-06-04T01:42:50;7.00;;;3.47;;
78648;SDS011;67962;47.310;9.642;2023-06-04T01:45:16;6.10;;;3.42;;
78648;SDS011;67962;47.310;9.642;2023-06-04T01:47:42;5.75;;;3.67;;
78648;SDS011;67962;47.310;9.642;2023-06-04T01:50:07;5.65;;;3.42;;
78648;SDS011;67962;47.310;9.642;2023-06-04T01:52:37;7.05;;;3.38;;
78648;SDS011;67962;47.310;9.642;2023-06-04T01:55:03;6.35;;;3.47;;
78648;SDS011;67962;47.310;9.642;2023-06-04T01:57:30;6.03;;;3.53;;
78648;SDS011;67962;47.310;9.642;2023-06-04T01:59:55;6.57;;;3.83;;
78648;SDS011;67962;47.310;9.642;2023-06-04T02:02:21;5.82;;;3.55;;
78648;SDS011;67962;47.310;9.642;2023-06-04T02:04:47;5.65;;;3.50;;
78648;SDS011;67962;47.310;9.642;2023-06-04T02:07:16;7.22;;;3.67;;
78648;SDS011;67962;47.310;9.642;2023-06-04T02:09:45;8.80;;;3.72;;
78648;SDS011;67962;47.310;9.642;2023-06-04T02:12:11;6.47;;;3.35;;
78648;SDS011;67962;47.310;9.642;2023-06-04T02:14:37;8.75;;;4.00;;
78648;SDS011;67962;47.310;9.642;2023-06-04T02:17:03;7.35;;;3.95;;
78648;SDS011;67962;47.310;9.642;2023-06-04T02:19:30;6.45;;;3.65;;
78648;SDS011;67962;47.310;9.642;2023-06-04T02:21:58;6.15;;;3.17;;
78648;SDS011;67962;47.310;9.642;2023-06-04T02:24:24;8.05;;;3.83;;
78648;SDS011;67962;47.310;9.642;2023-06-04T02:26:50;7.07;;;4.20;;
78648;SDS011;67962;47.310;9.642;2023-06-04T02:29:16;6.00;;;3.53;;
78648;SDS011;67962;47.310;9.642;2023-06-04T02:31:41;5.97;;;3.58;;
78648;SDS011;67962;47.310;9.642;2023-06-04T02:34:07;7.03;;;3.88;;
78648;SDS011;67962;47.310;9.642;2023-06-04T02:36:33;5.93;;;3.63;;
78648;SDS011;67962;47.310;9.642;2023-06-04T02:38:59;8.48;;;3.55;;
78648;SDS011;67962;47.310;9.642;2023-06-04T02:41:26;5.50;;;3.30;;
78648;SDS011;67962;47.310;9.642;2023-06-04T02:43:51;6.15;;;3.70;;
78648;SDS011;67962;47.310;9.642;2023-06-04T02:46:17;5.72;;;3.92;;
78648;SDS011;67962;47.310;9.642;2023-06-04T02:48:43;7.40;;;3.75;;
78648;SDS011;67962;47.310;9.642;2023-06-04T02:51:08;6.65;;;3.80;;
78648;SDS011;67962;47.310;9.642;2023-06-04T02:53:36;4.88;;;3.20;;
78648;SDS011;67962;47.310;9.642;2023-06-04T02:56:02;5.57;;;3.35;;
78648;SDS011;67962;47.310;9.642;2023-06-04T02:58:27;6.32;;;3.53;;
78648;SDS011;67962;47.310;9.642;2023-06-04T03:00:54;5.97;;;3.50;;
78648;SDS011;67962;47.310;9.642;2023-06-04T03:03:20;5.50;;;3.33;;
78648;SDS011;67962;47.310;9.642;2023-06-04T03:05:46;5.53;;;3.35;;
78648;SDS011;67962;47.310;9.642;2023-06-04T03:08:13;5.57;;;3.50;;
78648;SDS011;67962;47.310;9.642;2023-06-04T03:10:38;6.05;;;3.33;;
78648;SDS011;67962;47.310;9.642;2023-06-04T03:13:04;5.35;;;3.40;;
78648;SDS011;67962;47.310;9.642;2023-06-04T03:15:30;5.63;;;3.17;;
78648;SDS011;67962;47.310;9.642;2023-06-04T03:17:55;6.22;;;3.70;;
78648;SDS011;67962;47.310;9.642;2023-06-04T03:20:22;6.70;;;3.78;;
78648;SDS011;67962;47.310;9.642;2023-06-04T03:22:49;5.65;;;3.28;;
78648;SDS011;67962;47.310;9.642;2023-06-04T03:25:15;4.85;;;3.13;;
78648;SDS011;67962;47.310;9.642;2023-06-04T03:27:41;7.60;;;3.13;;
78648;SDS011;67962;47.310;9.642;2023-06-04T03:30:07;6.15;;;3.28;;
78648;SDS011;67962;47.310;9.642;2023-06-04T03:32:33;5.32;;;3.65;;
78648;SDS011;67962;47.310;9.642;2023-06-04T03:34:59;6.43;;;3.20;;
78648;SDS011;67962;47.310;9.642;2023-06-04T03:37:26;6.68;;;3.50;;
78648;SDS011;67962;47.310;9.642;2023-06-04T03:39:52;5.30;;;3.47;;
78648;SDS011;67962;47.310;9.642;2023-06-04T03:42:17;8.38;;;3.58;;
78648;SDS011;67962;47.310;9.642;2023-06-04T03:44:43;7.57;;;3.42;;
78648;SDS011;67962;47.310;9.642;2023-06-04T03:47:09;6.30;;;3.70;;
78648;SDS011;67962;47.310;9.642;2023-06-04T03:49:35;6.32;;;3.60;;
78648;SDS011;67962;47.310;9.642;2023-06-04T03:52:01;6.07;;;3.50;;
78648;SDS011;67962;47.310;9.642;2023-06-04T03:54:26;7.03;;;3.60;;
78648;SDS011;67962;47.310;9.642;2023-06-04T03:56:52;5.10;;;3.45;;
78648;SDS011;67962;47.310;9.642;2023-06-04T03:59:18;4.95;;;3.20;;
78648;SDS011;67962;47.310;9.642;2023-06-04T04:01:43;5.43;;;3.42;;
78648;SDS011;67962;47.310;9.642;2023-06-04T04:04:09;5.60;;;3.40;;
78648;SDS011;67962;47.310;9.642;2023-06-04T04:06:35;5.95;;;3.70;;
78648;SDS011;67962;47.310;9.642;2023-06-04T04:09:02;6.43;;;3.33;;
78648;SDS011;67962;47.310;9.642;2023-06-04T04:11:29;4.80;;;3.33;;
78648;SDS011;67962;47.310;9.642;2023-06-04T04:13:54;5.32;;;3.40;;
78648;SDS011;67962;47.310;9.642;2023-06-04T04:16:21;6.78;;;3.40;;
78648;SDS011;67962;47.310;9.642;2023-06-04T04:18:47;5.47;;;3.47;;
78648;SDS011;67962;47.310;9.642;2023-06-04T04:21:12;7.38;;;3.33;;
78648;SDS011;67962;47.310;9.642;2023-06-04T04:23:38;7.93;;;3.17;;
78648;SDS011;67962;47.310;9.642;2023-06-04T04:26:07;4.50;;;2.80;;
78648;SDS011;67962;47.310;9.642;2023-06-04T04:28:35;5.93;;;3.55;;
78648;SDS011;67962;47.310;9.642;2023-06-04T04:31:01;4.97;;;3.00;;
78648;SDS011;67962;47.310;9.642;2023-06-04T04:33:27;5.35;;;3.10;;
78648;SDS011;67962;47.310;9.642;2023-06-04T04:35:57;7.10;;;3.50;;
78648;SDS011;67962;47.310;9.642;2023-06-04T04:38:24;7.72;;;3.30;;
78648;SDS011;67962;47.310;9.642;2023-06-04T04:40:50;4.00;;;2.80;;
78648;SDS011;67962;47.310;9.642;2023-06-04T04:43:38;6.45;;;3.20;;
78648;SDS011;67962;47.310;9.642;2023-06-04T04:46:06;8.90;;;3.40;;
78648;SDS011;67962;47.310;9.642;2023-06-04T04:48:32;4.90;;;3.20;;
78648;SDS011;67962;47.310;9.642;2023-06-04T04:50:58;6.22;;;3.25;;
78648;SDS011;67962;47.310;9.642;2023-06-04T04:53:25;7.55;;;3.50;;
78648;SDS011;67962;47.310;9.642;2023-06-04T04:55:52;5.80;;;3.10;;
78648;SDS011;67962;47.310;9.642;2023-06-04T04:58:17;5.25;;;3.42;;
78648;SDS011;67962;47.310;9.642;2023-06-04T05:00:43;5.50;;;3.50;;
78648;SDS011;67962;47.310;9.642;2023-06-04T05:03:09;7.55;;;3.78;;
78648;SDS011;67962;47.310;9.642;2023-06-04T05:05:35;3.90;;;2.90;;
78648;SDS011;67962;47.310;9.642;2023-06-04T05:08:00;6.30;;;3.20;;
78648;SDS011;67962;47.310;9.642;2023-06-04T05:10:26;5.78;;;3.35;;
78648;SDS011;67962;47.310;9.642;2023-06-04T05:12:52;4.97;;;3.15;;
78648;SDS011;67962;47.310;9.642;2023-06-04T05:15:19;6.28;;;3.20;;
78648;SDS011;67962;47.310;9.642;2023-06-04T05:17:45;5.40;;;3.25;;
78648;SDS011;67962;47.310;9.642;2023-06-04T05:20:12;5.15;;;2.83;;
78648;SDS011;67962;47.310;9.642;2023-06-04T05:22:38;5.32;;;3.20;;
78648;SDS011;67962;47.310;9.642;2023-06-04T05:25:04;4.25;;;2.92;;
78648;SDS011;67962;47.310;9.642;2023-06-04T05:27:33;6.15;;;3.15;;
78648;SDS011;67962;47.310;9.642;2023-06-04T05:30:00;5.15;;;3.30;;
78648;SDS011;67962;47.310;9.642;2023-06-04T05:32:28;6.95;;;3.30;;
78648;SDS011;67962;47.310;9.642;2023-06-04T05:34:54;5.38;;;2.95;;
78648;SDS011;67962;47.310;9.642;2023-06-04T05:37:24;5.28;;;3.13;;
78648;SDS011;67962;47.310;9.642;2023-06-04T05:39:52;7.20;;;3.17;;
78648;SDS011;67962;47.310;9.642;2023-06-04T05:42:18;4.00;;;2.83;;
78648;SDS011;67962;47.310;9.642;2023-06-04T05:44:44;4.03;;;2.92;;
78648;SDS011;67962;47.310;9.642;2023-06-04T05:47:10;8.38;;;2.95;;
78648;SDS011;67962;47.310;9.642;2023-06-04T05:49:36;5.90;;;2.80;;
78648;SDS011;67962;47.310;9.642;2023-06-04T05:52:02;7.25;;;3.00;;
78648;SDS011;67962;47.310;9.642;2023-06-04T05:54:28;3.75;;;2.72;;
78648;SDS011;67962;47.310;9.642;2023-06-04T05:56:55;4.28;;;2.80;;
78648;SDS011;67962;47.310;9.642;2023-06-04T05:59:21;3.85;;;2.75;;
78648;SDS011;67962;47.310;9.642;2023-06-04T06:01:46;6.75;;;3.28;;
78648;SDS011;67962;47.310;9.642;2023-06-04T06:04:15;5.60;;;3.10;;
78648;SDS011;67962;47.310;9.642;2023-06-04T06:06:41;5.07;;;3.35;;
78648;SDS011;67962;47.310;9.642;2023-06-04T06:09:13;4.47;;;3.13;;
78648;SDS011;67962;47.310;9.642;2023-06-04T06:11:40;4.78;;;3.30;;
78648;SDS011;67962;47.310;9.642;2023-06-04T06:14:06;5.43;;;3.08;;
78648;SDS011;67962;47.310;9.642;2023-06-04T06:16:31;7.93;;;3.53;;
78648;SDS011;67962;47.310;9.642;2023-06-04T06:18:57;4.53;;;3.28;;
78648;SDS011;67962;47.310;9.642;2023-06-04T06:21:24;4.75;;;3.50;;
78648;SDS011;67962;47.310;9.642;2023-06-04T06:23:51;5.47;;;3.17;;
78648;SDS011;67962;47.310;9.642;2023-06-04T06:26:17;8.68;;;3.30;;
78648;SDS011;67962;47.310;9.642;2023-06-04T06:28:43;5.82;;;3.30;;
78648;SDS011;67962;47.310;9.642;2023-06-04T06:31:09;4.18;;;3.35;;
78648;SDS011;67962;47.310;9.642;2023-06-04T06:33:35;4.18;;;3.20;;
78648;SDS011;67962;47.310;9.642;2023-06-04T06:36:06;5.70;;;3.30;;
78648;SDS011;67962;47.310;9.642;2023-06-04T06:38:43;4.82;;;3.65;;
78648;SDS011;67962;47.310;9.642;2023-06-04T06:41:10;5.57;;;3.53;;
78648;SDS011;67962;47.310;9.642;2023-06-04T06:43:36;6.43;;;3.47;;
78648;SDS011;67962;47.310;9.642;2023-06-04T06:46:02;5.78;;;3.33;;
78648;SDS011;67962;47.310;9.642;2023-06-04T06:48:27;6.40;;;3.90;;
78648;SDS011;67962;47.310;9.642;2023-06-04T06:50:53;6.25;;;3.45;;
78648;SDS011;67962;47.310;9.642;2023-06-04T06:53:19;5.07;;;3.58;;
78648;SDS011;67962;47.310;9.642;2023-06-04T06:55:45;6.57;;;4.45;;
78648;SDS011;67962;47.310;9.642;2023-06-04T06:58:11;6.80;;;4.65;;
78648;SDS011;67962;47.310;9.642;2023-06-04T07:00:37;9.65;;;4.53;;
78648;SDS011;67962;47.310;9.642;2023-06-04T07:03:02;6.55;;;4.00;;
78648;SDS011;67962;47.310;9.642;2023-06-04T07:05:29;11.18;;;4.43;;
78648;SDS011;67962;47.310;9.642;2023-06-04T07:07:55;7.30;;;4.10;;
78648;SDS011;67962;47.310;9.642;2023-06-04T07:10:22;6.68;;;4.03;;
78648;SDS011;67962;47.310;9.642;2023-06-04T07:12:48;9.25;;;4.72;;
78648;SDS011;67962;47.310;9.642;2023-06-04T07:15:14;6.82;;;4.47;;
78648;SDS011;67962;47.310;9.642;2023-06-04T07:17:40;5.47;;;3.67;;
78648;SDS011;67962;47.310;9.642;2023-06-04T07:20:06;9.30;;;4.53;;
78648;SDS011;67962;47.310;9.642;2023-06-04T07:22:33;9.05;;;4.32;;
78648;SDS011;67962;47.310;9.642;2023-06-04T07:24:59;6.20;;;4.18;;
78648;SDS011;67962;47.310;9.642;2023-06-04T07:27:25;6.05;;;3.85;;
78648;SDS011;67962;47.310;9.642;2023-06-04T07:29:51;7.13;;;3.97;;
78648;SDS011;67962;47.310;9.642;2023-06-04T07:32:17;8.05;;;4.07;;
78648;SDS011;67962;47.310;9.642;2023-06-04T07:34:43;5.85;;;4.03;;
78648;SDS011;67962;47.310;9.642;2023-06-04T07:37:09;5.82;;;4.15;;
78648;SDS011;67962;47.310;9.642;2023-06-04T07:39:35;10.05;;;4.63;;
78648;SDS011;67962;47.310;9.642;2023-06-04T07:42:04;6.10;;;4.28;;
78648;SDS011;67962;47.310;9.642;2023-06-04T07:44:30;6.13;;;4.20;;
78648;SDS011;67962;47.310;9.642;2023-06-04T07:46:56;6.45;;;4.60;;
78648;SDS011;67962;47.310;9.642;2023-06-04T07:49:22;4.82;;;3.75;;
78648;SDS011;67962;47.310;9.642;2023-06-04T07:51:47;8.75;;;4.57;;
78648;SDS011;67962;47.310;9.642;2023-06-04T07:54:13;8.50;;;4.80;;
78648;SDS011;67962;47.310;9.642;2023-06-04T07:56:39;8.95;;;4.72;;
78648;SDS011;67962;47.310;9.642;2023-06-04T07:59:05;11.15;;;4.80;;
78648;SDS011;67962;47.310;9.642;2023-06-04T08:01:30;9.80;;;4.43;;
78648;SDS011;67962;47.310;9.642;2023-06-04T08:03:56;9.63;;;4.38;;
78648;SDS011;67962;47.310;9.642;2023-06-04T08:06:24;7.45;;;5.10;;
78648;SDS011;67962;47.310;9.642;2023-06-04T08:08:51;8.65;;;5.00;;
78648;SDS011;67962;47.310;9.642;2023-06-04T08:11:17;6.78;;;4.78;;
78648;SDS011;67962;47.310;9.642;2023-06-04T08:13:43;8.40;;;4.43;;
78648;SDS011;67962;47.310;9.642;2023-06-04T08:16:09;11.00;;;4.78;;
78648;SDS011;67962;47.310;9.642;2023-06-04T08:18:38;10.52;;;4.35;;
78648;SDS011;67962;47.310;9.642;2023-06-04T08:21:04;8.52;;;4.40;;
78648;SDS011;67962;47.310;9.642;2023-06-04T08:23:31;9.15;;;4.20;;
78648;SDS011;67962;47.310;9.642;2023-06-04T08:25:57;6.22;;;4.32;;
78648;SDS011;67962;47.310;9.642;2023-06-04T08:28:24;6.88;;;4.30;;
78648;SDS011;67962;47.310;9.642;2023-06-04T08:30:50;7.95;;;4.45;;
78648;SDS011;67962;47.310;9.642;2023-06-04T08:33:15;7.28;;;4.78;;
78648;SDS011;67962;47.310;9.642;2023-06-04T08:35:41;6.60;;;4.03;;
78648;SDS011;67962;47.310;9.642;2023-06-04T08:38:10;9.90;;;4.22;;
78648;SDS011;67962;47.310;9.642;2023-06-04T08:40:36;6.10;;;4.15;;
78648;SDS011;67962;47.310;9.642;2023-06-04T08:43:01;5.93;;;4.18;;
78648;SDS011;67962;47.310;9.642;2023-06-04T08:45:27;6.93;;;4.53;;
78648;SDS011;67962;47.310;9.642;2023-06-04T08:47:54;8.35;;;4.55;;
78648;SDS011;67962;47.310;9.642;2023-06-04T08:50:21;6.25;;;4.22;;
78648;SDS011;67962;47.310;9.642;2023-06-04T08:52:52;6.72;;;3.95;;
78648;SDS011;67962;47.310;9.642;2023-06-04T08:55:19;6.53;;;4.57;;
78648;SDS011;67962;47.310;9.642;2023-06-04T08:57:45;7.10;;;4.53;;
78648;SDS011;67962;47.310;9.642;2023-06-04T09:00:14;8.68;;;4.97;;
78648;SDS011;67962;47.310;9.642;2023-06-04T09:02:40;9.65;;;5.22;;
78648;SDS011;67962;47.310;9.642;2023-06-04T09:05:07;7.50;;;4.28;;
78648;SDS011;67962;47.310;9.642;2023-06-04T09:07:36;7.50;;;5.03;;
78648;SDS011;67962;47.310;9.642;2023-06-04T09:10:06;6.88;;;4.35;;
78648;SDS011;67962;47.310;9.642;2023-06-04T09:12:35;8.00;;;5.22;;
78648;SDS011;67962;47.310;9.642;2023-06-04T09:15:05;6.65;;;4.47;;
78648;SDS011;67962;47.310;9.642;2023-06-04T09:17:32;8.45;;;4.75;;
78648;SDS011;67962;47.310;9.642;2023-06-04T09:19:57;8.13;;;4.90;;
78648;SDS011;67962;47.310;9.642;2023-06-04T09:22:33;12.05;;;4.70;;
78648;SDS011;67962;47.310;9.642;2023-06-04T09:24:59;7.88;;;4.88;;
78648;SDS011;67962;47.310;9.642;2023-06-04T09:27:25;9.52;;;4.68;;
78648;SDS011;67962;47.310;9.642;2023-06-04T09:29:53;7.53;;;5.20;;
78648;SDS011;67962;47.310;9.642;2023-06-04T09:32:27;10.55;;;5.22;;
78648;SDS011;67962;47.310;9.642;2023-06-04T09:34:54;10.90;;;5.03;;
78648;SDS011;67962;47.310;9.642;2023-06-04T09:37:22;8.88;;;5.35;;
78648;SDS011;67962;47.310;9.642;2023-06-04T09:39:54;7.85;;;5.03;;
78648;SDS011;67962;47.310;9.642;2023-06-04T09:42:23;6.75;;;4.40;;
78648;SDS011;67962;47.310;9.642;2023-06-04T09:44:49;7.35;;;4.82;;
78648;SDS011;67962;47.310;9.642;2023-06-04T09:47:15;6.85;;;4.72;;
78648;SDS011;67962;47.310;9.642;2023-06-04T09:49:41;9.20;;;5.00;;
78648;SDS011;67962;47.310;9.642;2023-06-04T09:52:07;5.80;;;4.50;;
78648;SDS011;67962;47.310;9.642;2023-06-04T09:54:36;8.15;;;5.72;;
78648;SDS011;67962;47.310;9.642;2023-06-04T09:57:04;8.65;;;5.70;;
78648;SDS011;67962;47.310;9.642;2023-06-04T09:59:43;9.60;;;5.18;;
78648;SDS011;67962;47.310;9.642;2023-06-04T10:02:18;8.43;;;4.78;;
78648;SDS011;67962;47.310;9.642;2023-06-04T10:04:46;7.15;;;4.72;;
78648;SDS011;67962;47.310;9.642;2023-06-04T10:07:18;8.80;;;4.75;;
78648;SDS011;67962;47.310;9.642;2023-06-04T10:09:45;10.50;;;5.07;;
78648;SDS011;67962;47.310;9.642;2023-06-04T10:12:15;16.20;;;4.55;;
78648;SDS011;67962;47.310;9.642;2023-06-04T10:14:47;7.18;;;4.70;;
78648;SDS011;67962;47.310;9.642;2023-06-04T10:17:18;5.20;;;3.95;;
78648;SDS011;67962;47.310;9.642;2023-06-04T10:19:47;7.60;;;4.40;;
78648;SDS011;67962;47.310;9.642;2023-06-04T10:22:17;6.32;;;4.35;;
78648;SDS011;67962;47.310;9.642;2023-06-04T10:24:43;6.75;;;4.82;;
78648;SDS011;67962;47.310;9.642;2023-06-04T10:27:09;8.15;;;4.85;;
78648;SDS011;67962;47.310;9.642;2023-06-04T10:29:38;6.70;;;4.78;;
78648;SDS011;67962;47.310;9.642;2023-06-04T10:32:04;6.72;;;4.75;;
78648;SDS011;67962;47.310;9.642;2023-06-04T10:34:30;8.45;;;4.68;;
78648;SDS011;67962;47.310;9.642;2023-06-04T10:36:57;6.47;;;4.82;;
78648;SDS011;67962;47.310;9.642;2023-06-04T10:39:30;7.07;;;4.82;;
78648;SDS011;67962;47.310;9.642;2023-06-04T10:42:03;7.13;;;5.38;;
78648;SDS011;67962;47.310;9.642;2023-06-04T10:44:30;9.13;;;4.85;;
78648;SDS011;67962;47.310;9.642;2023-06-04T10:46:57;8.75;;;4.72;;
78648;SDS011;67962;47.310;9.642;2023-06-04T10:49:27;6.80;;;4.57;;
78648;SDS011;67962;47.310;9.642;2023-06-04T10:51:53;7.25;;;4.95;;
78648;SDS011;67962;47.310;9.642;2023-06-04T10:54:24;8.52;;;4.72;;
78648;SDS011;67962;47.310;9.642;2023-06-04T10:56:51;7.75;;;4.68;;
78648;SDS011;67962;47.310;9.642;2023-06-04T10:59:18;6.22;;;4.45;;
78648;SDS011;67962;47.310;9.642;2023-06-04T11:01:44;7.57;;;4.50;;
78648;SDS011;67962;47.310;9.642;2023-06-04T11:04:26;6.75;;;4.43;;
78648;SDS011;67962;47.310;9.642;2023-06-04T11:07:04;6.65;;;4.95;;
78648;SDS011;67962;47.310;9.642;2023-06-04T11:09:35;7.30;;;4.40;;
78648;SDS011;67962;47.310;9.642;2023-06-04T11:12:03;7.13;;;3.97;;
78648;SDS011;67962;47.310;9.642;2023-06-04T11:14:30;7.78;;;4.05;;
78648;SDS011;67962;47.310;9.642;2023-06-04T11:16:55;6.90;;;4.35;;
78648;SDS011;67962;47.310;9.642;2023-06-04T11:19:21;6.55;;;4.60;;
78648;SDS011;67962;47.310;9.642;2023-06-04T11:21:48;6.65;;;4.00;;
78648;SDS011;67962;47.310;9.642;2023-06-04T11:24:14;8.50;;;4.25;;
78648;SDS011;67962;47.310;9.642;2023-06-04T11:26:41;6.95;;;3.80;;
78648;SDS011;67962;47.310;9.642;2023-06-04T11:29:08;6.70;;;4.18;;
78648;SDS011;67962;47.310;9.642;2023-06-04T11:31:43;5.03;;;3.63;;
78648;SDS011;67962;47.310;9.642;2023-06-04T11:34:10;5.07;;;3.80;;
78648;SDS011;67962;47.310;9.642;2023-06-04T11:36:46;5.53;;;3.83;;
78648;SDS011;67962;47.310;9.642;2023-06-04T11:39:14;5.38;;;3.67;;
78648;SDS011;67962;47.310;9.642;2023-06-04T11:41:40;6.85;;;4.00;;
78648;SDS011;67962;47.310;9.642;2023-06-04T11:44:07;6.57;;;3.85;;
78648;SDS011;67962;47.310;9.642;2023-06-04T11:46:34;7.85;;;3.75;;
78648;SDS011;67962;47.310;9.642;2023-06-04T11:49:01;7.53;;;4.05;;
78648;SDS011;67962;47.310;9.642;2023-06-04T11:51:27;5.75;;;3.47;;
78648;SDS011;67962;47.310;9.642;2023-06-04T11:53:54;4.25;;;2.97;;
78648;SDS011;67962;47.310;9.642;2023-06-04T11:56:20;5.20;;;3.33;;
78648;SDS011;67962;47.310;9.642;2023-06-04T11:58:48;5.30;;;3.58;;
78648;SDS011;67962;47.310;9.642;2023-06-04T12:01:14;5.28;;;3.67;;
78648;SDS011;67962;47.310;9.642;2023-06-04T12:03:40;4.97;;;3.50;;
78648;SDS011;67962;47.310;9.642;2023-06-04T12:06:14;6.32;;;3.70;;
78648;SDS011;67962;47.310;9.642;2023-06-04T12:08:58;5.32;;;3.42;;
78648;SDS011;67962;47.310;9.642;2023-06-04T12:11:31;6.07;;;3.30;;
78648;SDS011;67962;47.310;9.642;2023-06-04T12:13:58;4.85;;;3.25;;
78648;SDS011;67962;47.310;9.642;2023-06-04T12:16:26;5.88;;;3.50;;
78648;SDS011;67962;47.310;9.642;2023-06-04T12:18:52;6.47;;;3.45;;
78648;SDS011;67962;47.310;9.642;2023-06-04T12:21:32;6.03;;;3.70;;
78648;SDS011;67962;47.310;9.642;2023-06-04T12:24:19;5.88;;;3.60;;
78648;SDS011;67962;47.310;9.642;2023-06-04T12:26:44;10.30;;;3.67;;
78648;SDS011;67962;47.310;9.642;2023-06-04T12:29:11;7.95;;;4.43;;
78648;SDS011;67962;47.310;9.642;2023-06-04T12:31:38;5.57;;;3.88;;
78648;SDS011;67962;47.310;9.642;2023-06-04T12:34:05;6.72;;;3.50;;
78648;SDS011;67962;47.310;9.642;2023-06-04T12:36:31;6.20;;;3.55;;
78648;SDS011;67962;47.310;9.642;2023-06-04T12:38:59;7.63;;;4.32;;
78648;SDS011;67962;47.310;9.642;2023-06-04T12:41:26;6.60;;;3.78;;
78648;SDS011;67962;47.310;9.642;2023-06-04T12:43:53;6.82;;;3.85;;
78648;SDS011;67962;47.310;9.642;2023-06-04T12:46:19;6.57;;;3.97;;
78648;SDS011;67962;47.310;9.642;2023-06-04T12:48:46;6.85;;;3.67;;
78648;SDS011;67962;47.310;9.642;2023-06-04T12:51:13;5.05;;;3.70;;
78648;SDS011;67962;47.310;9.642;2023-06-04T12:53:39;8.85;;;4.03;;
78648;SDS011;67962;47.310;9.642;2023-06-04T12:56:05;6.05;;;3.70;;
78648;SDS011;67962;47.310;9.642;2023-06-04T12:58:31;5.18;;;3.58;;
78648;SDS011;67962;47.310;9.642;2023-06-04T13:00:57;5.78;;;3.72;;
78648;SDS011;67962;47.310;9.642;2023-06-04T13:03:22;7.18;;;3.75;;
78648;SDS011;67962;47.310;9.642;2023-06-04T13:05:48;7.47;;;4.13;;
78648;SDS011;67962;47.310;9.642;2023-06-04T13:08:16;6.97;;;4.13;;
78648;SDS011;67962;47.310;9.642;2023-06-04T13:10:42;7.95;;;4.72;;
78648;SDS011;67962;47.310;9.642;2023-06-04T13:13:07;6.18;;;3.67;;
78648;SDS011;67962;47.310;9.642;2023-06-04T13:15:33;6.78;;;3.60;;
78648;SDS011;67962;47.310;9.642;2023-06-04T13:17:59;8.38;;;3.35;;
78648;SDS011;67962;47.310;9.642;2023-06-04T13:20:24;8.43;;;3.80;;
78648;SDS011;67962;47.310;9.642;2023-06-04T13:22:50;5.50;;;3.22;;
78648;SDS011;67962;47.310;9.642;2023-06-04T13:25:16;4.57;;;3.30;;
78648;SDS011;67962;47.310;9.642;2023-06-04T13:27:42;7.00;;;3.35;;
78648;SDS011;67962;47.310;9.642;2023-06-04T13:30:09;4.82;;;2.90;;
78648;SDS011;67962;47.310;9.642;2023-06-04T13:32:35;3.58;;;2.67;;
78648;SDS011;67962;47.310;9.642;2023-06-04T13:35:01;5.03;;;3.00;;
78648;SDS011;67962;47.310;9.642;2023-06-04T13:37:26;3.90;;;2.63;;
78648;SDS011;67962;47.310;9.642;2023-06-04T13:39:52;5.55;;;2.35;;
78648;SDS011;67962;47.310;9.642;2023-06-04T13:42:18;5.70;;;2.55;;
78648;SDS011;67962;47.310;9.642;2023-06-04T13:44:44;4.55;;;2.90;;
78648;SDS011;67962;47.310;9.642;2023-06-04T13:47:09;3.92;;;2.60;;
78648;SDS011;67962;47.310;9.642;2023-06-04T13:49:35;4.13;;;2.58;;
78648;SDS011;67962;47.310;9.642;2023-06-04T13:52:01;5.78;;;2.63;;
78648;SDS011;67962;47.310;9.642;2023-06-04T13:54:27;4.03;;;2.80;;
78648;SDS011;67962;47.310;9.642;2023-06-04T13:56:52;4.38;;;2.72;;
78648;SDS011;67962;47.310;9.642;2023-06-04T13:59:18;4.30;;;2.75;;
78648;SDS011;67962;47.310;9.642;2023-06-04T14:01:44;6.72;;;3.20;;
78648;SDS011;67962;47.310;9.642;2023-06-04T14:04:10;3.42;;;1.98;;
78648;SDS011;67962;47.310;9.642;2023-06-04T14:06:36;2.95;;;2.17;;
78648;SDS011;67962;47.310;9.642;2023-06-04T14:09:02;3.92;;;2.30;;
78648;SDS011;67962;47.310;9.642;2023-06-04T14:11:29;4.72;;;2.55;;
78648;SDS011;67962;47.310;9.642;2023-06-04T14:13:55;3.83;;;2.25;;
78648;SDS011;67962;47.310;9.642;2023-06-04T14:16:21;5.07;;;2.30;;
78648;SDS011;67962;47.310;9.642;2023-06-04T14:18:46;3.58;;;2.30;;
78648;SDS011;67962;47.310;9.642;2023-06-04T14:21:12;5.57;;;2.60;;
78648;SDS011;67962;47.310;9.642;2023-06-04T14:23:38;3.55;;;2.30;;
78648;SDS011;67962;47.310;9.642;2023-06-04T14:26:03;5.43;;;2.17;;
78648;SDS011;67962;47.310;9.642;2023-06-04T14:28:29;3.40;;;2.20;;
78648;SDS011;67962;47.310;9.642;2023-06-04T14:30:55;6.18;;;2.55;;
78648;SDS011;67962;47.310;9.642;2023-06-04T14:33:22;3.22;;;2.10;;
78648;SDS011;67962;47.310;9.642;2023-06-04T14:35:48;4.68;;;2.17;;
78648;SDS011;67962;47.310;9.642;2023-06-04T14:38:14;7.05;;;2.25;;
78648;SDS011;67962;47.310;9.642;2023-06-04T14:40:40;2.72;;;2.05;;
78648;SDS011;67962;47.310;9.642;2023-06-04T14:43:08;3.42;;;2.47;;
78648;SDS011;67962;47.310;9.642;2023-06-04T14:45:37;3.10;;;2.13;;
78648;SDS011;67962;47.310;9.642;2023-06-04T14:48:04;3.25;;;2.13;;
78648;SDS011;67962;47.310;9.642;2023-06-04T14:50:30;2.95;;;1.98;;
78648;SDS011;67962;47.310;9.642;2023-06-04T14:52:56;3.33;;;2.28;;
78648;SDS011;67962;47.310;9.642;2023-06-04T14:55:22;4.15;;;2.10;;
78648;SDS011;67962;47.310;9.642;2023-06-04T14:57:49;3.47;;;1.90;;